sensor_id;sensor_type;location;lat;lon;timestamp;pressure;altitude;pressure_sealevel;temperature;humidity
29935;BME280;19905;53.370;-6.314;2022-09-01T00:00:29;102134.84;;;16.07;100.00
29935;BME280;19905;53.370;-6.314;2022-09-01T00:03:00;102135.81;;;16.06;100.00
29935;BME280;19905;53.370;-6.314;2022-09-01T00:05:29;102134.72;;;15.97;100.00
29935;BME280;19905;53.370;-6.314;2022-09-01T00:07:59;102126.22;;;15.92;100.00
29935;BME280;19905;53.370;-6.314;2022-09-01T00:10:27;102126.72;;;15.97;100.00
29935;BME280;19905;53.370;-6.314;2022-09-01T00:12:55;102127.47;;;15.99;100.00
29935;BME280;19905;53.370;-6.314;2022-09-01T00:15:24;102122.97;;;16.00;100.00
29935;BME280;19905;53.370;-6.314;2022-09-01T00:17:53;102131.34;;;16.07;100.00
29935;BME280;19905;53.370;-6.314;2022-09-01T00:20:24;102130.38;;;16.08;100.00
29935;BME280;19905;53.370;-6.314;2022-09-01T00:22:52;102124.19;;;15.96;100.00
29935;BME280;19905;53.370;-6.314;2022-09-01T00:25:22;102123.06;;;15.87;100.00
29935;BME280;19905;53.370;-6.314;2022-09-01T00:27:51;102122.69;;;15.81;100.00
29935;BME280;19905;53.370;-6.314;2022-09-01T00:30:20;102124.59;;;15.79;100.00
29935;BME280;19905;53.370;-6.314;2022-09-01T00:32:49;102120.81;;;15.70;100.00
29935;BME280;19905;53.370;-6.314;2022-09-01T00:35:19;102124.34;;;15.70;100.00
29935;BME280;19905;53.370;-6.314;2022-09-01T00:37:50;102121.31;;;15.75;100.00
29935;BME280;19905;53.370;-6.314;2022-09-01T00:40:18;102121.81;;;15.80;100.00
29935;BME280;19905;53.370;-6.314;2022-09-01T00:42:48;102122.28;;;15.74;100.00
29935;BME280;19905;53.370;-6.314;2022-09-01T00:45:17;102122.69;;;15.81;100.00
29935;BME280;19905;53.370;-6.314;2022-09-01T00:47:48;102125.84;;;15.86;100.00
29935;BME280;19905;53.370;-6.314;2022-09-01T00:50:17;102128.16;;;15.90;100.00
29935;BME280;19905;53.370;-6.314;2022-09-01T00:52:51;102119.34;;;15.90;100.00
29935;BME280;19905;53.370;-6.314;2022-09-01T00:55:27;102120.63;;;15.84;100.00
29935;BME280;19905;53.370;-6.314;2022-09-01T00:57:59;102116.75;;;15.88;100.00
29935;BME280;19905;53.370;-6.314;2022-09-01T01:00:32;102117.50;;;15.90;100.00
29935;BME280;19905;53.370;-6.314;2022-09-01T01:03:09;102116.66;;;15.90;100.00
29935;BME280;19905;53.370;-6.314;2022-09-01T01:05:41;102115.78;;;15.89;100.00
29935;BME280;19905;53.370;-6.314;2022-09-01T01:08:24;102107.34;;;15.95;100.00
29935;BME280;19905;53.370;-6.314;2022-09-01T01:11:00;102107.09;;;15.98;100.00
29935;BME280;19905;53.370;-6.314;2022-09-01T01:13:29;102115.84;;;16.00;100.00
29935;BME280;19905;53.370;-6.314;2022-09-01T01:16:02;102107.09;;;15.98;100.00
29935;BME280;19905;53.370;-6.314;2022-09-01T01:18:34;102108.06;;;15.97;100.00
29935;BME280;19905;53.370;-6.314;2022-09-01T01:21:05;102097.88;;;16.02;100.00
29935;BME280;19905;53.370;-6.314;2022-09-01T01:23:57;102106.59;;;15.93;100.00
29935;BME280;19905;53.370;-6.314;2022-09-01T01:26:31;102101.53;;;15.90;100.00
29935;BME280;19905;53.370;-6.314;2022-09-01T01:28:59;102100.56;;;15.91;100.00
29935;BME280;19905;53.370;-6.314;2022-09-01T01:31:29;102092.91;;;15.98;100.00
29935;BME280;19905;53.370;-6.314;2022-09-01T01:33:59;102098.88;;;16.01;100.00
29935;BME280;19905;53.370;-6.314;2022-09-01T01:36:32;102087.00;;;16.06;100.00
29935;BME280;19905;53.370;-6.314;2022-09-01T01:39:05;102083.38;;;16.07;100.00
29935;BME280;19905;53.370;-6.314;2022-09-01T01:41:36;102080.09;;;16.14;100.00
29935;BME280;19905;53.370;-6.314;2022-09-01T01:44:08;102079.25;;;16.14;100.00
29935;BME280;19905;53.370;-6.314;2022-09-01T01:46:40;102072.59;;;16.19;100.00
29935;BME280;19905;53.370;-6.314;2022-09-01T01:49:11;102068.47;;;16.15;100.00
29935;BME280;19905;53.370;-6.314;2022-09-01T01:51:46;102074.66;;;16.05;100.00
29935;BME280;19905;53.370;-6.314;2022-09-01T01:54:16;102071.00;;;16.06;100.00
29935;BME280;19905;53.370;-6.314;2022-09-01T01:56:47;102073.53;;;16.07;100.00
29935;BME280;19905;53.370;-6.314;2022-09-01T01:59:17;102067.84;;;16.12;100.00
29935;BME280;19905;53.370;-6.314;2022-09-01T02:01:45;102072.47;;;16.10;100.00
29935;BME280;19905;53.370;-6.314;2022-09-01T02:04:18;102072.09;;;16.03;100.00
29935;BME280;19905;53.370;-6.314;2022-09-01T02:06:48;102074.66;;;16.05;100.00
29935;BME280;19905;53.370;-6.314;2022-09-01T02:09:19;102080.97;;;16.04;100.00
29935;BME280;19905;53.370;-6.314;2022-09-01T02:11:51;102079.97;;;16.05;100.00
29935;BME280;19905;53.370;-6.314;2022-09-01T02:14:23;102075.50;;;16.05;100.00
29935;BME280;19905;53.370;-6.314;2022-09-01T02:16:52;102080.47;;;16.10;100.00
29935;BME280;19905;53.370;-6.314;2022-09-01T02:19:22;102080.34;;;16.11;100.00
29935;BME280;19905;53.370;-6.314;2022-09-01T02:21:50;102086.16;;;16.16;100.00
29935;BME280;19905;53.370;-6.314;2022-09-01T02:24:22;102069.69;;;16.22;100.00
29935;BME280;19905;53.370;-6.314;2022-09-01T02:26:53;102075.03;;;16.22;100.00
29935;BME280;19905;53.370;-6.314;2022-09-01T02:29:26;102074.06;;;16.23;100.00
29935;BME280;19905;53.370;-6.314;2022-09-01T02:32:02;102078.66;;;16.21;100.00
29935;BME280;19905;53.370;-6.314;2022-09-01T02:34:31;102072.38;;;16.22;100.00
29935;BME280;19905;53.370;-6.314;2022-09-01T02:37:00;102071.63;;;16.20;100.00
29935;BME280;19905;53.370;-6.314;2022-09-01T02:39:30;102069.56;;;16.24;100.00
29935;BME280;19905;53.370;-6.314;2022-09-01T02:42:01;102069.56;;;16.24;100.00
29935;BME280;19905;53.370;-6.314;2022-09-01T02:44:30;102067.88;;;16.23;100.00
29935;BME280;19905;53.370;-6.314;2022-09-01T02:46:58;102066.91;;;16.24;100.00
29935;BME280;19905;53.370;-6.314;2022-09-01T02:49:27;102070.53;;;16.23;100.00
29935;BME280;19905;53.370;-6.314;2022-09-01T02:51:57;102070.28;;;16.26;100.00
29935;BME280;19905;53.370;-6.314;2022-09-01T02:54:30;102073.22;;;16.23;100.00
29935;BME280;19905;53.370;-6.314;2022-09-01T02:57:00;102066.56;;;16.17;100.00
29935;BME280;19905;53.370;-6.314;2022-09-01T02:59:30;102068.59;;;16.14;100.00
29935;BME280;19905;53.370;-6.314;2022-09-01T03:02:00;102066.56;;;16.17;100.00
29935;BME280;19905;53.370;-6.314;2022-09-01T03:04:29;102063.00;;;16.17;100.00
29935;BME280;19905;53.370;-6.314;2022-09-01T03:07:02;102060.25;;;16.18;100.00
29935;BME280;19905;53.370;-6.314;2022-09-01T03:09:31;102058.28;;;16.20;100.00
29935;BME280;19905;53.370;-6.314;2022-09-01T03:12:03;102058.28;;;16.20;100.00
29935;BME280;19905;53.370;-6.314;2022-09-01T03:14:33;102052.97;;;16.20;100.00
29935;BME280;19905;53.370;-6.314;2022-09-01T03:17:01;102061.31;;;16.16;100.00
29935;BME280;19905;53.370;-6.314;2022-09-01T03:19:30;102063.28;;;16.14;100.00
29935;BME280;19905;53.370;-6.314;2022-09-01T03:22:06;102054.53;;;16.12;100.00
29935;BME280;19905;53.370;-6.314;2022-09-01T03:24:34;102056.34;;;16.11;100.00
29935;BME280;19905;53.370;-6.314;2022-09-01T03:27:06;102057.19;;;16.12;100.00
29935;BME280;19905;53.370;-6.314;2022-09-01T03:29:38;102054.16;;;16.05;100.00
29935;BME280;19905;53.370;-6.314;2022-09-01T03:32:06;102051.50;;;16.05;100.00
29935;BME280;19905;53.370;-6.314;2022-09-01T03:34:35;102048.00;;;16.05;100.00
29935;BME280;19905;53.370;-6.314;2022-09-01T03:37:05;102044.72;;;16.01;100.00
29935;BME280;19905;53.370;-6.314;2022-09-01T03:39:35;102044.59;;;16.02;100.00
29935;BME280;19905;53.370;-6.314;2022-09-01T03:42:04;102043.25;;;15.97;100.00
29935;BME280;19905;53.370;-6.314;2022-09-01T03:44:36;102044.22;;;15.96;100.00
29935;BME280;19905;53.370;-6.314;2022-09-01T03:47:07;102045.06;;;15.96;100.00
29935;BME280;19905;53.370;-6.314;2022-09-01T03:49:41;102039.03;;;15.94;100.00
29935;BME280;19905;53.370;-6.314;2022-09-01T03:52:11;102038.16;;;15.94;100.00
29935;BME280;19905;53.370;-6.314;2022-09-01T03:54:42;102035.84;;;15.89;100.00
29935;BME280;19905;53.370;-6.314;2022-09-01T03:57:11;102029.81;;;15.87;100.00
29935;BME280;19905;53.370;-6.314;2022-09-01T03:59:42;102029.81;;;15.87;100.00
29935;BME280;19905;53.370;-6.314;2022-09-01T04:02:11;102024.69;;;15.84;100.00
29935;BME280;19905;53.370;-6.314;2022-09-01T04:04:41;102029.31;;;15.82;100.00
29935;BME280;19905;53.370;-6.314;2022-09-01T04:07:09;102022.66;;;15.88;100.00
29935;BME280;19905;53.370;-6.314;2022-09-01T04:09:45;102020.22;;;15.85;100.00
29935;BME280;19905;53.370;-6.314;2022-09-01T04:12:13;102022.78;;;15.86;100.00
29935;BME280;19905;53.370;-6.314;2022-09-01T04:14:44;102016.72;;;15.84;100.00
29935;BME280;19905;53.370;-6.314;2022-09-01T04:17:14;102016.34;;;15.78;100.00
29935;BME280;19905;53.370;-6.314;2022-09-01T04:20:01;102015.59;;;15.75;100.00
29935;BME280;19905;53.370;-6.314;2022-09-01T04:22:34;102003.50;;;15.71;100.00
29935;BME280;19905;53.370;-6.314;2022-09-01T04:25:05;102004.59;;;15.69;100.00
29935;BME280;19905;53.370;-6.314;2022-09-01T04:27:35;102007.03;;;15.72;100.00
29935;BME280;19905;53.370;-6.314;2022-09-01T04:30:10;101998.78;;;15.75;100.00
29935;BME280;19905;53.370;-6.314;2022-09-01T04:32:39;102007.03;;;15.72;100.00
29935;BME280;19905;53.370;-6.314;2022-09-01T04:35:08;102003.75;;;15.68;100.00
29935;BME280;19905;53.370;-6.314;2022-09-01T04:37:43;101999.09;;;15.59;100.00
29935;BME280;19905;53.370;-6.314;2022-09-01T04:40:14;101999.44;;;15.55;100.00
29935;BME280;19905;53.370;-6.314;2022-09-01T04:42:44;102008.63;;;15.50;100.00
29935;BME280;19905;53.370;-6.314;2022-09-01T04:45:15;102004.63;;;15.45;100.00
29935;BME280;19905;53.370;-6.314;2022-09-01T04:47:48;102003.78;;;15.44;100.00
29935;BME280;19905;53.370;-6.314;2022-09-01T04:50:18;102010.31;;;15.40;100.00
29935;BME280;19905;53.370;-6.314;2022-09-01T04:52:47;102011.25;;;15.39;100.00
29935;BME280;19905;53.370;-6.314;2022-09-01T04:55:17;102006.06;;;15.38;100.00
29935;BME280;19905;53.370;-6.314;2022-09-01T04:57:46;102007.88;;;15.37;100.00
29935;BME280;19905;53.370;-6.314;2022-09-01T05:00:20;102008.09;;;15.34;100.00
29935;BME280;19905;53.370;-6.314;2022-09-01T05:02:54;102011.84;;;15.32;100.00
29935;BME280;19905;53.370;-6.314;2022-09-01T05:05:36;102013.66;;;15.31;100.00
29935;BME280;19905;53.370;-6.314;2022-09-01T05:08:09;102004.84;;;15.31;100.00
29935;BME280;19905;53.370;-6.314;2022-09-01T05:10:51;102016.78;;;15.25;100.00
29935;BME280;19905;53.370;-6.314;2022-09-01T05:17:05;102010.84;;;15.21;100.00
29935;BME280;19905;53.370;-6.314;2022-09-01T05:19:36;102013.59;;;15.20;100.00
29935;BME280;19905;53.370;-6.314;2022-09-01T05:22:06;102013.09;;;15.15;100.00
29935;BME280;19905;53.370;-6.314;2022-09-01T05:24:36;102015.44;;;15.19;100.00
29935;BME280;19905;53.370;-6.314;2022-09-01T05:27:08;102019.69;;;15.22;100.00
29935;BME280;19905;53.370;-6.314;2022-09-01T05:29:43;102019.56;;;15.23;100.00
29935;BME280;19905;53.370;-6.314;2022-09-01T05:32:14;102026.22;;;15.29;100.00
29935;BME280;19905;53.370;-6.314;2022-09-01T05:34:42;102027.69;;;15.33;100.00
29935;BME280;19905;53.370;-6.314;2022-09-01T05:37:12;102033.78;;;15.35;100.00
29935;BME280;19905;53.370;-6.314;2022-09-01T05:39:43;102022.16;;;15.36;100.00
29935;BME280;19905;53.370;-6.314;2022-09-01T05:42:12;102017.69;;;15.37;100.00
29935;BME280;19905;53.370;-6.314;2022-09-01T05:44:40;102022.50;;;15.32;100.00
29935;BME280;19905;53.370;-6.314;2022-09-01T05:47:10;102018.16;;;15.31;100.00
29935;BME280;19905;53.370;-6.314;2022-09-01T05:49:49;102014.97;;;15.25;100.00
29935;BME280;19905;53.370;-6.314;2022-09-01T05:52:19;102019.09;;;15.30;100.00
29935;BME280;19905;53.370;-6.314;2022-09-01T05:54:52;102019.84;;;15.32;100.00
29935;BME280;19905;53.370;-6.314;2022-09-01T05:57:23;102010.75;;;15.34;100.00
29935;BME280;19905;53.370;-6.314;2022-09-01T06:00:03;102017.06;;;15.33;100.00
29935;BME280;19905;53.370;-6.314;2022-09-01T06:02:37;102021.91;;;15.39;100.00
29935;BME280;19905;53.370;-6.314;2022-09-01T06:05:09;102021.31;;;15.36;100.00
29935;BME280;19905;53.370;-6.314;2022-09-01T06:07:39;102013.19;;;15.37;100.00
29935;BME280;19905;53.370;-6.314;2022-09-01T06:10:09;102012.22;;;15.38;100.00
29935;BME280;19905;53.370;-6.314;2022-09-01T06:12:40;102016.34;;;15.42;100.00
29935;BME280;19905;53.370;-6.314;2022-09-01T06:15:14;102019.25;;;15.39;100.00
29935;BME280;19905;53.370;-6.314;2022-09-01T06:17:45;102019.25;;;15.39;100.00
29935;BME280;19905;53.370;-6.314;2022-09-01T06:20:16;102018.66;;;15.47;100.00
29935;BME280;19905;53.370;-6.314;2022-09-01T06:22:46;102025.81;;;15.46;100.00
29935;BME280;19905;53.370;-6.314;2022-09-01T06:25:15;102025.59;;;15.49;100.00
29935;BME280;19905;53.370;-6.314;2022-09-01T06:27:45;102024.63;;;15.50;100.00
29935;BME280;19905;53.370;-6.314;2022-09-01T06:30:16;102025.09;;;15.44;100.00
29935;BME280;19905;53.370;-6.314;2022-09-01T06:32:50;102021.59;;;15.55;100.00
29935;BME280;19905;53.370;-6.314;2022-09-01T06:35:23;102023.16;;;15.58;100.00
29935;BME280;19905;53.370;-6.314;2022-09-01T06:37:59;102021.28;;;15.71;100.00
29935;BME280;19905;53.370;-6.314;2022-09-01T06:40:28;102024.34;;;15.78;100.00
29935;BME280;19905;53.370;-6.314;2022-09-01T06:42:58;102025.19;;;15.78;100.00
29935;BME280;19905;53.370;-6.314;2022-09-01T06:45:29;102024.56;;;15.74;100.00
29935;BME280;19905;53.370;-6.314;2022-09-01T06:47:59;102030.50;;;15.78;100.00
29935;BME280;19905;53.370;-6.314;2022-09-01T06:50:30;102023.75;;;15.85;100.00
29935;BME280;19905;53.370;-6.314;2022-09-01T06:53:20;102026.41;;;15.96;100.00
29935;BME280;19905;53.370;-6.314;2022-09-01T06:56:05;102025.94;;;16.02;100.00
29935;BME280;19905;53.370;-6.314;2022-09-01T06:58:35;102027.25;;;15.97;100.00
29935;BME280;19905;53.370;-6.314;2022-09-01T07:01:09;102038.50;;;15.89;100.00
29935;BME280;19905;53.370;-6.314;2022-09-01T07:03:43;102035.00;;;15.89;100.00
29935;BME280;19905;53.370;-6.314;2022-09-01T07:06:15;102035.66;;;16.04;100.00
29935;BME280;19905;53.370;-6.314;2022-09-01T07:09:04;102032.97;;;16.15;100.00
29935;BME280;19905;53.370;-6.314;2022-09-01T07:11:53;102040.00;;;16.27;100.00
29935;BME280;19905;53.370;-6.314;2022-09-01T07:14:42;102025.69;;;16.39;100.00
29935;BME280;19905;53.370;-6.314;2022-09-01T07:17:33;102025.69;;;16.39;100.00
29935;BME280;19905;53.370;-6.314;2022-09-01T07:20:02;102029.09;;;16.41;100.00
29935;BME280;19905;53.370;-6.314;2022-09-01T07:22:53;102023.75;;;16.41;100.00
29935;BME280;19905;53.370;-6.314;2022-09-01T07:25:32;102033.34;;;16.33;100.00
29935;BME280;19905;53.370;-6.314;2022-09-01T07:28:25;102039.16;;;16.26;100.00
29935;BME280;19905;53.370;-6.314;2022-09-01T07:31:03;102032.34;;;16.11;100.00
29935;BME280;19905;53.370;-6.314;2022-09-01T07:33:57;102033.59;;;16.18;100.00
29935;BME280;19905;53.370;-6.314;2022-09-01T07:36:47;102028.59;;;16.02;100.00
29935;BME280;19905;53.370;-6.314;2022-09-01T07:39:37;102029.06;;;16.08;100.00
29935;BME280;19905;53.370;-6.314;2022-09-01T07:42:17;102035.41;;;16.18;100.00
29935;BME280;19905;53.370;-6.314;2022-09-01T07:45:08;102037.47;;;16.14;100.00
29935;BME280;19905;53.370;-6.314;2022-09-01T07:47:55;102032.25;;;16.13;100.00
29935;BME280;19905;53.370;-6.314;2022-09-01T07:50:26;102032.50;;;16.10;100.00
29935;BME280;19905;53.370;-6.314;2022-09-01T07:53:17;102025.94;;;16.25;100.00
29935;BME280;19905;53.370;-6.314;2022-09-01T07:55:52;102020.94;;;16.43;100.00
29935;BME280;19905;53.370;-6.314;2022-09-01T07:58:24;102018.66;;;16.49;100.00
29935;BME280;19905;53.370;-6.314;2022-09-01T08:00:53;102022.91;;;16.41;100.00
29935;BME280;19905;53.370;-6.314;2022-09-01T08:03:26;102017.19;;;16.34;100.00
29935;BME280;19905;53.370;-6.314;2022-09-01T08:05:55;102014.28;;;16.48;100.00
29935;BME280;19905;53.370;-6.314;2022-09-01T08:08:27;102013.78;;;16.55;100.00
29935;BME280;19905;53.370;-6.314;2022-09-01T08:10:58;102009.53;;;16.63;100.00
29935;BME280;19905;53.370;-6.314;2022-09-01T08:13:31;102006.00;;;16.74;100.00
29935;BME280;19905;53.370;-6.314;2022-09-01T08:16:08;102013.09;;;16.96;100.00
29935;BME280;19905;53.370;-6.314;2022-09-01T08:18:45;102003.09;;;17.09;100.00
29935;BME280;19905;53.370;-6.314;2022-09-01T08:21:17;101998.56;;;17.21;100.00
29935;BME280;19905;53.370;-6.314;2022-09-01T08:23:48;101999.00;;;17.26;100.00
29935;BME280;19905;53.370;-6.314;2022-09-01T08:26:21;101994.66;;;17.25;100.00
29935;BME280;19905;53.370;-6.314;2022-09-01T08:28:50;101992.44;;;17.30;100.00
29935;BME280;19905;53.370;-6.314;2022-09-01T08:31:23;101991.19;;;17.34;100.00
29935;BME280;19905;53.370;-6.314;2022-09-01T08:33:57;101992.38;;;17.20;100.00
29935;BME280;19905;53.370;-6.314;2022-09-01T08:36:26;101994.91;;;17.22;100.00
29935;BME280;19905;53.370;-6.314;2022-09-01T08:38:54;101988.31;;;17.05;100.00
29935;BME280;19905;53.370;-6.314;2022-09-01T08:41:34;101993.09;;;16.90;100.00
29935;BME280;19905;53.370;-6.314;2022-09-01T08:44:19;101999.03;;;16.94;100.00
29935;BME280;19905;53.370;-6.314;2022-09-01T08:46:54;101993.31;;;16.98;100.00
29935;BME280;19905;53.370;-6.314;2022-09-01T08:49:25;101987.72;;;17.01;100.00
29935;BME280;19905;53.370;-6.314;2022-09-01T08:51:59;101982.31;;;17.13;100.00
29935;BME280;19905;53.370;-6.314;2022-09-01T08:54:37;101974.97;;;17.05;100.00
29935;BME280;19905;53.370;-6.314;2022-09-01T08:57:15;101969.63;;;17.05;100.00
29935;BME280;19905;53.370;-6.314;2022-09-01T08:59:45;101967.03;;;17.15;100.00
29935;BME280;19905;53.370;-6.314;2022-09-01T09:02:27;101969.53;;;17.27;100.00
29935;BME280;19905;53.370;-6.314;2022-09-01T09:05:06;101972.75;;;17.31;100.00
29935;BME280;19905;53.370;-6.314;2022-09-01T09:07:57;101970.94;;;17.11;100.00
29935;BME280;19905;53.370;-6.314;2022-09-01T09:13:47;101968.16;;;17.33;100.00
29935;BME280;19905;53.370;-6.314;2022-09-01T09:16:26;101958.91;;;17.68;100.00
29935;BME280;19905;53.370;-6.314;2022-09-01T09:18:59;101950.56;;;18.22;100.00
29935;BME280;19905;53.370;-6.314;2022-09-01T09:21:32;101944.00;;;18.46;100.00
29935;BME280;19905;53.370;-6.314;2022-09-01T09:24:09;101934.44;;;18.43;100.00
29935;BME280;19905;53.370;-6.314;2022-09-01T09:26:48;101934.34;;;18.14;100.00
29935;BME280;19905;53.370;-6.314;2022-09-01T09:29:18;101932.81;;;18.12;100.00
29935;BME280;19905;53.370;-6.314;2022-09-01T09:32:01;101915.00;;;18.41;100.00
29935;BME280;19905;53.370;-6.314;2022-09-01T09:34:33;101915.34;;;18.77;100.00
29935;BME280;19905;53.370;-6.314;2022-09-01T09:37:19;101915.44;;;19.04;100.00
29935;BME280;19905;53.370;-6.314;2022-09-01T09:40:09;101914.63;;;18.94;100.00
29935;BME280;19905;53.370;-6.314;2022-09-01T09:42:39;101914.38;;;18.88;100.00
29935;BME280;19905;53.370;-6.314;2022-09-01T09:45:21;101915.88;;;18.90;100.00
29935;BME280;19905;53.370;-6.314;2022-09-01T09:47:51;101902.38;;;19.01;100.00
29935;BME280;19905;53.370;-6.314;2022-09-01T09:50:24;101904.22;;;18.72;100.00
29935;BME280;19905;53.370;-6.314;2022-09-01T09:53:14;101901.50;;;18.62;100.00
29935;BME280;19905;53.370;-6.314;2022-09-01T09:56:07;101909.28;;;18.94;100.00
29935;BME280;19905;53.370;-6.314;2022-09-01T09:58:39;101904.19;;;18.91;100.00
29935;BME280;19905;53.370;-6.314;2022-09-01T10:01:12;101903.50;;;18.89;100.00
29935;BME280;19905;53.370;-6.314;2022-09-01T10:03:46;101902.09;;;18.85;100.00
29935;BME280;19905;53.370;-6.314;2022-09-01T10:06:30;101901.38;;;18.73;100.00
29935;BME280;19905;53.370;-6.314;2022-09-01T10:09:03;101898.72;;;18.83;100.00
29935;BME280;19905;53.370;-6.314;2022-09-01T10:11:36;101898.84;;;18.82;100.00
29935;BME280;19905;53.370;-6.314;2022-09-01T10:14:12;101889.41;;;18.97;100.00
29935;BME280;19905;53.370;-6.314;2022-09-01T10:17:11;101896.47;;;18.88;100.00
29935;BME280;19905;53.370;-6.314;2022-09-01T10:19:46;101892.06;;;19.07;100.00
29935;BME280;19905;53.370;-6.314;2022-09-01T10:22:15;101887.53;;;19.17;100.00
29935;BME280;19905;53.370;-6.314;2022-09-01T10:24:44;101894.25;;;19.30;100.00
29935;BME280;19905;53.370;-6.314;2022-09-01T10:27:19;101885.78;;;19.35;100.00
29935;BME280;19905;53.370;-6.314;2022-09-01T10:29:54;101887.53;;;19.17;100.00
29935;BME280;19905;53.370;-6.314;2022-09-01T10:32:48;101891.63;;;19.21;100.00
29935;BME280;19905;53.370;-6.314;2022-09-01T10:35:25;101890.75;;;19.30;100.00
29935;BME280;19905;53.370;-6.314;2022-09-01T10:37:55;101871.63;;;18.96;100.00
29935;BME280;19905;53.370;-6.314;2022-09-01T10:40:37;101880.41;;;18.88;100.00
29935;BME280;19905;53.370;-6.314;2022-09-01T10:43:26;101880.00;;;18.83;100.00
29935;BME280;19905;53.370;-6.314;2022-09-01T10:49:18;101867.25;;;19.51;100.00
29935;BME280;19905;53.370;-6.314;2022-09-01T10:51:54;101874.19;;;19.44;100.00
29935;BME280;19905;53.370;-6.314;2022-09-01T10:54:52;101874.00;;;19.09;100.00
29935;BME280;19905;53.370;-6.314;2022-09-01T10:57:48;101866.94;;;19.17;100.00
29935;BME280;19905;53.370;-6.314;2022-09-01T11:00:45;101864.91;;;19.76;100.00
29935;BME280;19905;53.370;-6.314;2022-09-01T11:06:59;101864.66;;;19.60;100.00
29935;BME280;19905;53.370;-6.314;2022-09-01T11:10:15;101846.53;;;19.81;100.00
29935;BME280;19905;53.370;-6.314;2022-09-01T11:13:30;101848.47;;;19.51;100.00
29935;BME280;19905;53.370;-6.314;2022-09-01T11:16:32;101855.59;;;19.43;100.00
29935;BME280;19905;53.370;-6.314;2022-09-01T11:19:30;101846.66;;;19.62;100.00
29935;BME280;19905;53.370;-6.314;2022-09-01T11:22:10;101840.38;;;19.98;100.00
29935;BME280;19905;53.370;-6.314;2022-09-01T11:25:10;101841.41;;;19.88;100.00
29935;BME280;19905;53.370;-6.314;2022-09-01T11:27:58;101840.00;;;19.93;100.00
29935;BME280;19905;53.370;-6.314;2022-09-01T11:30:42;101837.13;;;19.77;100.00
29935;BME280;19905;53.370;-6.314;2022-09-01T11:33:31;101836.22;;;19.86;100.00
29935;BME280;19905;53.370;-6.314;2022-09-01T11:36:03;101837.47;;;20.10;100.00
29935;BME280;19905;53.370;-6.314;2022-09-01T11:38:44;101835.16;;;19.69;100.00
29935;BME280;19905;53.370;-6.314;2022-09-01T11:41:21;101834.84;;;20.00;100.00
29935;BME280;19905;53.370;-6.314;2022-09-01T11:43:54;101847.44;;;19.72;100.00
29935;BME280;19905;53.370;-6.314;2022-09-01T11:46:29;101842.31;;;20.42;100.00
29935;BME280;19905;53.370;-6.314;2022-09-01T11:49:05;101836.22;;;20.75;100.00
29935;BME280;19905;53.370;-6.314;2022-09-01T11:51:43;101835.88;;;20.52;100.00
29935;BME280;19905;53.370;-6.314;2022-09-01T11:54:15;101835.81;;;20.62;100.00
29935;BME280;19905;53.370;-6.314;2022-09-01T11:56:43;101832.53;;;20.94;100.00
29935;BME280;19905;53.370;-6.314;2022-09-01T11:59:12;101825.22;;;20.61;100.00
29935;BME280;19905;53.370;-6.314;2022-09-01T12:01:41;101832.94;;;20.28;100.00
29935;BME280;19905;53.370;-6.314;2022-09-01T12:04:20;101829.75;;;19.79;100.00
29935;BME280;19905;53.370;-6.314;2022-09-01T12:06:55;101833.03;;;19.73;100.00
29935;BME280;19905;53.370;-6.314;2022-09-01T12:09:36;101829.81;;;19.60;100.00
29935;BME280;19905;53.370;-6.314;2022-09-01T12:12:23;101832.88;;;19.37;100.00
29935;BME280;19905;53.370;-6.314;2022-09-01T12:14:55;101827.06;;;19.61;100.00
29935;BME280;19905;53.370;-6.314;2022-09-01T12:17:32;101836.97;;;19.41;100.00
29935;BME280;19905;53.370;-6.314;2022-09-01T12:20:22;101825.91;;;19.64;100.00
29935;BME280;19905;53.370;-6.314;2022-09-01T12:22:55;101816.94;;;20.36;100.00
29935;BME280;19905;53.370;-6.314;2022-09-01T12:25:27;101819.84;;;20.07;100.00
29935;BME280;19905;53.370;-6.314;2022-09-01T12:27:58;101814.88;;;21.52;100.00
29935;BME280;19905;53.370;-6.314;2022-09-01T12:30:28;101810.03;;;21.55;100.00
29935;BME280;19905;53.370;-6.314;2022-09-01T12:32:57;101812.44;;;21.06;100.00
29935;BME280;19905;53.370;-6.314;2022-09-01T12:35:46;101808.03;;;21.66;100.00
29935;BME280;19905;53.370;-6.314;2022-09-01T12:38:21;101805.09;;;21.43;100.00
29935;BME280;19905;53.370;-6.314;2022-09-01T12:40:53;101787.59;;;21.81;100.00
29935;BME280;19905;53.370;-6.314;2022-09-01T12:43:36;101798.63;;;21.27;100.00
29935;BME280;19905;53.370;-6.314;2022-09-01T12:46:07;101791.13;;;21.39;100.00
29935;BME280;19905;53.370;-6.314;2022-09-01T12:48:40;101799.19;;;21.39;100.00
29935;BME280;19905;53.370;-6.314;2022-09-01T12:51:17;101788.38;;;21.23;100.00
29935;BME280;19905;53.370;-6.314;2022-09-01T12:53:56;101799.94;;;20.89;100.00
29935;BME280;19905;53.370;-6.314;2022-09-01T12:56:32;101794.94;;;20.50;100.00
29935;BME280;19905;53.370;-6.314;2022-09-01T12:59:08;101797.75;;;20.67;100.00
29935;BME280;19905;53.370;-6.314;2022-09-01T13:01:43;101792.78;;;20.80;100.00
29935;BME280;19905;53.370;-6.314;2022-09-01T13:04:25;101791.50;;;20.22;100.00
29935;BME280;19905;53.370;-6.314;2022-09-01T13:06:58;101791.56;;;20.13;100.00
29935;BME280;19905;53.370;-6.314;2022-09-01T13:09:27;101791.00;;;20.89;100.00
29935;BME280;19905;53.370;-6.314;2022-09-01T13:12:11;101778.81;;;21.71;100.00
29935;BME280;19905;53.370;-6.314;2022-09-01T13:14:40;101775.88;;;21.40;100.00
29935;BME280;19905;53.370;-6.314;2022-09-01T13:17:08;101772.16;;;21.91;100.00
29935;BME280;19905;53.370;-6.314;2022-09-01T13:19:40;101775.88;;;21.48;100.00
29935;BME280;19905;53.370;-6.314;2022-09-01T13:22:10;101767.91;;;21.80;100.00